Time;durP1;ratioP1;P1;durP2;ratioP2;P2;SDS_P1;SDS_P2;PMS_P1;PMS_P2;Temp;Humidity;BMP_temperature;BMP_pressure;BME280_temperature;BME280_humidity;BME280_pressure;Samples;Min_cycle;Max_cycle;Signal;HPM_P1;HPM_P2
2021/12/12 00:00:11;;;;;;;169.55;91.68;;;3.50;99.90;;;;;;5070096;28;20048;-72
2021/12/12 00:02:56;;;;;;;172.15;93.85;;;3.50;99.90;;;;;;5070231;28;20155;-72
2021/12/12 00:05:28;;;;;;;187.48;92.80;;;3.50;99.90;;;;;;5068581;28;20405;-72
2021/12/12 00:07:54;;;;;;;165.70;91.40;;;3.50;99.90;;;;;;5068427;28;20090;-72
2021/12/12 00:10:23;;;;;;;189.00;96.03;;;3.50;99.90;;;;;;5072472;28;20470;-72
2021/12/12 00:12:54;;;;;;;161.98;89.53;;;3.50;99.90;;;;;;5074485;28;20098;-72
2021/12/12 00:15:22;;;;;;;160.07;86.75;;;3.50;99.90;;;;;;5068599;28;20127;-72
2021/12/12 00:17:48;;;;;;;161.33;89.50;;;3.50;99.90;;;;;;5052489;28;20086;-72
2021/12/12 00:20:17;;;;;;;175.52;95.03;;;3.60;99.90;;;;;;5072233;28;20044;-72
2021/12/12 00:22:43;;;;;;;181.30;91.90;;;3.60;99.90;;;;;;5071363;28;20498;-72
2021/12/12 00:25:10;;;;;;;163.93;85.68;;;3.60;99.90;;;;;;5065796;28;20110;-72
2021/12/12 00:27:37;;;;;;;162.55;88.72;;;3.60;99.90;;;;;;5058080;28;20095;-72
2021/12/12 00:30:05;;;;;;;156.75;85.78;;;3.60;99.90;;;;;;5057538;28;20044;-72
2021/12/12 00:32:39;;;;;;;169.68;89.90;;;3.60;99.90;;;;;;5070305;28;20045;-72
2021/12/12 00:35:11;;;;;;;157.43;85.50;;;3.60;99.90;;;;;;5069222;28;20456;-72
2021/12/12 00:37:37;;;;;;;154.10;87.25;;;3.60;99.90;;;;;;5056724;28;20045;-72
2021/12/12 00:40:20;;;;;;;150.80;85.20;;;3.60;99.90;;;;;;5063673;28;20098;-72
2021/12/12 00:42:46;;;;;;;160.02;84.43;;;3.60;99.90;;;;;;5064322;28;20033;-72
2021/12/12 00:45:14;;;;;;;170.48;87.97;;;3.60;99.90;;;;;;5056551;28;20044;-72
2021/12/12 00:47:41;;;;;;;158.70;86.10;;;3.60;99.90;;;;;;5067566;28;20517;-72
2021/12/12 00:50:15;;;;;;;145.85;83.30;;;3.60;99.90;;;;;;5067993;28;20043;-72
2021/12/12 00:52:42;;;;;;;160.25;85.97;;;3.60;99.90;;;;;;5060737;28;20049;-72
2021/12/12 00:55:08;;;;;;;151.43;82.95;;;3.60;99.90;;;;;;5060379;28;20506;-72
2021/12/12 00:57:34;;;;;;;144.27;80.15;;;3.60;99.90;;;;;;5059699;28;20048;-72
2021/12/12 01:00:00;;;;;;;147.52;79.88;;;3.60;99.90;;;;;;5067679;28;20476;-72
2021/12/12 01:02:29;;;;;;;144.98;79.68;;;3.60;99.90;;;;;;5067832;28;20049;-72
2021/12/12 01:04:58;;;;;;;145.52;80.22;;;3.60;99.90;;;;;;5068000;28;20051;-72
2021/12/12 01:07:29;;;;;;;139.38;80.18;;;3.60;99.90;;;;;;5069280;28;20049;-73
2021/12/12 01:09:58;;;;;;;137.57;76.88;;;3.70;99.90;;;;;;5067897;28;20058;-72
2021/12/12 01:12:32;;;;;;;149.85;77.18;;;3.70;99.90;;;;;;5068907;28;20401;-72
2021/12/12 01:15:07;;;;;;;139.50;78.38;;;3.70;99.90;;;;;;5069739;28;20158;-72
2021/12/12 01:17:39;;;;;;;146.23;81.47;;;3.70;99.90;;;;;;5068074;28;20059;-72
2021/12/12 01:20:28;;;;;;;145.82;76.43;;;3.70;99.90;;;;;;5067784;28;20110;-72
2021/12/12 01:22:57;;;;;;;133.38;74.75;;;3.70;99.90;;;;;;5064400;28;20080;-72
2021/12/12 01:25:36;;;;;;;132.50;76.82;;;3.70;99.90;;;;;;5057144;28;20498;-73
2021/12/12 01:28:03;;;;;;;133.90;75.40;;;3.70;99.90;;;;;;5056279;28;20053;-72
2021/12/12 01:30:30;;;;;;;148.73;83.25;;;3.70;99.90;;;;;;5053792;28;20091;-73
2021/12/12 01:32:57;;;;;;;141.70;75.80;;;3.70;99.90;;;;;;5052904;28;20489;-73
2021/12/12 01:35:24;;;;;;;152.35;79.38;;;3.70;99.90;;;;;;5063537;28;20052;-73
2021/12/12 01:40:44;;;;;;;133.43;74.72;;;3.70;99.90;;;;;;5064648;28;20087;-72
2021/12/12 01:43:20;;;;;;;122.85;70.68;;;3.70;99.90;;;;;;5063371;28;20049;-72
2021/12/12 01:45:52;;;;;;;128.63;73.15;;;3.80;99.90;;;;;;5051012;28;20106;-72
2021/12/12 01:48:27;;;;;;;137.50;74.57;;;3.80;99.90;;;;;;5060371;28;20045;-72
2021/12/12 01:51:01;;;;;;;130.65;70.55;;;3.80;99.90;;;;;;5060571;28;20119;-72
2021/12/12 01:53:31;;;;;;;131.27;73.18;;;3.80;99.90;;;;;;5056165;28;20486;-72
2021/12/12 01:56:03;;;;;;;135.60;68.80;;;3.80;99.90;;;;;;5053562;28;20044;-73
2021/12/12 01:58:30;;;;;;;124.05;69.95;;;3.80;99.90;;;;;;5069588;28;20053;-72
2021/12/12 02:01:12;;;;;;;118.00;67.40;;;3.80;99.90;;;;;;5064439;28;20053;-72
2021/12/12 02:03:45;;;;;;;122.68;69.88;;;3.80;99.90;;;;;;5065866;28;20081;-72
2021/12/12 02:06:13;;;;;;;128.68;71.38;;;3.90;99.90;;;;;;5065541;28;20044;-72
2021/12/12 02:08:41;;;;;;;123.38;68.78;;;3.90;99.90;;;;;;5065854;28;20041;-72
2021/12/12 02:11:12;;;;;;;108.50;67.53;;;3.90;99.90;;;;;;5053498;28;20066;-72
2021/12/12 02:13:41;;;;;;;111.68;64.78;;;3.90;99.90;;;;;;5050717;28;20819;-72
2021/12/12 02:16:08;;;;;;;131.05;65.07;;;3.90;99.90;;;;;;5067068;28;20405;-72
2021/12/12 02:18:37;;;;;;;125.53;68.15;;;3.90;99.90;;;;;;5063003;28;20678;-72
2021/12/12 02:21:17;;;;;;;123.15;65.65;;;3.90;99.90;;;;;;5067546;28;20083;-72
2021/12/12 02:37:36;;;;;;;114.95;63.30;;;3.90;99.90;;;;;;5068956;28;20055;-72
2021/12/12 02:40:08;;;;;;;107.07;60.10;;;3.90;99.90;;;;;;5063924;28;20045;-72
2021/12/12 02:42:34;;;;;;;118.60;65.32;;;4.00;99.90;;;;;;5056812;28;20089;-72
2021/12/12 02:45:01;;;;;;;100.53;61.80;;;4.00;99.90;;;;;;5065122;28;20075;-72
2021/12/12 02:47:34;;;;;;;104.15;61.60;;;4.00;99.90;;;;;;5067336;28;20040;-72
2021/12/12 02:50:13;;;;;;;106.53;59.67;;;4.00;99.90;;;;;;5059967;28;20041;-72
2021/12/12 02:52:41;;;;;;;;;;;4.00;99.90;;;;;;5067140;28;20199;-72
2021/12/12 02:55:32;;;;;;;109.60;58.70;;;4.00;99.90;;;;;;5065456;28;19920;-72
2021/12/12 02:58:00;;;;;;;106.55;58.35;;;4.00;99.90;;;;;;5065949;28;20075;-72
2021/12/12 03:00:33;;;;;;;107.97;61.00;;;4.00;99.90;;;;;;5067617;28;20052;-72
2021/12/12 03:03:00;;;;;;;95.55;55.30;;;4.00;99.90;;;;;;5048975;28;20052;-72
2021/12/12 03:05:33;;;;;;;93.03;54.50;;;4.00;99.90;;;;;;5062280;28;20056;-72
2021/12/12 03:07:59;;;;;;;88.10;54.25;;;4.10;99.90;;;;;;5059259;28;20053;-72
2021/12/12 03:10:32;;;;;;;104.55;52.85;;;4.00;99.90;;;;;;5054936;28;20505;-72
2021/12/12 03:12:58;;;;;;;83.72;50.33;;;4.10;99.90;;;;;;5067807;28;20055;-72
2021/12/12 03:15:30;;;;;;;89.07;51.88;;;4.10;99.90;;;;;;5065776;28;20044;-72
2021/12/12 03:18:00;;;;;;;94.35;52.42;;;4.10;99.90;;;;;;5049670;28;20049;-72
2021/12/12 03:20:36;;;;;;;89.10;52.28;;;4.20;99.90;;;;;;5065847;28;20052;-72
2021/12/12 03:23:05;;;;;;;88.95;51.35;;;4.10;99.90;;;;;;5054848;28;20041;-72
2021/12/12 03:25:32;;;;;;;;;;;4.10;99.90;;;;;;5059218;28;20075;-72
2021/12/12 03:27:58;;;;;;;100.55;52.78;;;4.10;99.90;;;;;;5065212;28;19932;-72
2021/12/12 03:30:24;;;;;;;89.13;49.55;;;4.10;99.90;;;;;;5067000;28;20459;-72
2021/12/12 03:32:49;;;;;;;87.10;50.33;;;4.20;99.90;;;;;;5067370;28;20493;-72
2021/12/12 03:35:16;;;;;;;83.68;47.83;;;4.20;99.90;;;;;;5056788;28;20045;-72
2021/12/12 03:37:43;;;;;;;81.78;48.47;;;4.20;99.90;;;;;;5063792;28;20044;-72
2021/12/12 03:40:24;;;;;;;73.80;42.67;;;4.20;99.90;;;;;;5065895;28;20040;-72
2021/12/12 03:42:53;;;;;;;94.75;48.03;;;4.30;99.90;;;;;;5064192;28;20048;-72
2021/12/12 03:45:19;;;;;;;;;;;4.30;99.90;;;;;;5061926;28;20040;-72
2021/12/12 03:47:53;;;;;;;79.97;46.42;;;4.30;99.90;;;;;;5061555;28;19935;-72
2021/12/12 03:50:23;;;;;;;78.05;47.13;;;4.30;99.90;;;;;;5063431;28;20043;-72
2021/12/12 03:52:50;;;;;;;84.05;46.35;;;4.30;99.90;;;;;;5059625;28;20560;-72
2021/12/12 03:55:17;;;;;;;78.57;44.15;;;4.30;99.90;;;;;;5065246;28;20090;-72
2021/12/12 03:57:43;;;;;;;77.72;44.53;;;4.30;99.90;;;;;;5065289;28;20451;-72
2021/12/12 04:00:15;;;;;;;77.22;43.35;;;4.40;99.90;;;;;;5052224;28;20080;-72
2021/12/12 04:02:41;;;;;;;80.30;45.33;;;4.30;99.90;;;;;;5063495;28;20150;-72
2021/12/12 04:05:07;;;;;;;69.00;44.15;;;4.40;99.90;;;;;;5065170;28;20508;-72
2021/12/12 04:07:33;;;;;;;66.63;43.28;;;4.40;99.90;;;;;;5048262;28;20036;-72
2021/12/12 04:09:59;;;;;;;69.40;43.17;;;4.40;99.90;;;;;;5048954;28;20053;-72
2021/12/12 04:12:26;;;;;;;77.40;42.10;;;4.40;99.90;;;;;;5066488;28;20051;-72
2021/12/12 04:14:54;;;;;;;72.18;43.90;;;4.40;99.90;;;;;;5067122;28;20078;-72
2021/12/12 04:17:23;;;;;;;77.78;44.50;;;4.40;99.90;;;;;;5067237;28;20442;-72
2021/12/12 04:19:51;;;;;;;80.63;46.72;;;4.40;99.90;;;;;;5065894;28;20123;-72
2021/12/12 04:22:17;;;;;;;66.75;40.85;;;4.40;99.90;;;;;;5063543;28;20083;-72
2021/12/12 04:24:45;;;;;;;83.97;43.47;;;4.40;99.90;;;;;;5068770;28;20075;-72
2021/12/12 04:27:13;;;;;;;72.65;44.33;;;4.40;99.90;;;;;;5065861;28;20040;-72
2021/12/12 04:29:41;;;;;;;71.78;42.63;;;4.50;99.90;;;;;;5069333;28;20451;-72
2021/12/12 04:32:12;;;;;;;69.88;41.90;;;4.40;99.90;;;;;;5070009;28;20052;-72
2021/12/12 04:34:41;;;;;;;67.30;40.55;;;4.50;99.90;;;;;;5068807;28;20067;-72
2021/12/12 04:37:08;;;;;;;74.00;43.88;;;4.50;99.90;;;;;;5066613;28;20382;-72
2021/12/12 04:39:38;;;;;;;68.65;38.45;;;4.40;99.90;;;;;;5083893;28;20127;-72
2021/12/12 04:42:13;;;;;;;61.85;41.67;;;4.50;99.90;;;;;;5067402;28;20066;-72
2021/12/12 04:44:42;;;;;;;61.05;41.33;;;4.50;99.90;;;;;;5066331;28;20032;-72
2021/12/12 04:50:25;;;;;;;69.20;40.22;;;4.50;99.90;;;;;;5054151;28;20048;-72
2021/12/12 04:52:58;;;;;;;72.40;40.40;;;4.50;99.90;;;;;;5069132;28;20056;-72
2021/12/12 04:55:37;;;;;;;60.70;38.83;;;4.50;99.90;;;;;;5071928;28;20055;-73
2021/12/12 04:58:10;;;;;;;55.53;37.35;;;4.50;99.90;;;;;;5072044;28;20055;-72
2021/12/12 05:00:50;;;;;;;53.00;36.10;;;4.50;99.90;;;;;;5071978;28;20044;-72
2021/12/12 05:03:22;;;;;;;58.33;37.42;;;4.50;99.90;;;;;;5068829;28;20432;-72
2021/12/12 05:06:01;;;;;;;60.92;36.05;;;4.50;99.90;;;;;;5061465;28;20111;-72
2021/12/12 05:08:47;;;;;;;;;;;4.60;99.90;;;;;;5072558;28;20093;-72
2021/12/12 05:11:43;;;;;;;52.30;33.67;;;4.60;99.90;;;;;;5054141;28;20001;-72
2021/12/12 05:14:13;;;;;;;49.33;33.75;;;4.60;99.90;;;;;;5060190;28;20446;-72
2021/12/12 05:16:43;;;;;;;45.47;32.78;;;4.60;99.90;;;;;;5068665;28;20071;-72
2021/12/12 05:19:13;;;;;;;52.13;32.75;;;4.60;99.90;;;;;;5064030;28;20119;-72
2021/12/12 05:21:45;;;;;;;40.15;30.70;;;4.60;99.90;;;;;;5063249;28;20089;-72
2021/12/12 05:24:13;;;;;;;49.78;33.30;;;4.60;99.90;;;;;;5067939;28;20042;-72
2021/12/12 05:27:03;;;;;;;48.88;30.45;;;4.60;99.90;;;;;;5069856;28;20048;-72
2021/12/12 05:29:36;;;;;;;40.92;29.80;;;4.60;99.90;;;;;;5063044;28;20060;-72
2021/12/12 05:32:05;;;;;;;44.40;30.33;;;4.60;99.90;;;;;;5071570;28;20151;-72
2021/12/12 05:34:34;;;;;;;42.72;30.58;;;4.60;99.90;;;;;;5071667;28;20122;-72
2021/12/12 05:37:01;;;;;;;51.70;30.33;;;4.60;99.90;;;;;;5071897;28;20048;-72
2021/12/12 05:39:28;;;;;;;49.65;28.58;;;4.70;99.90;;;;;;5061391;28;20503;-72
2021/12/12 05:41:56;;;;;;;43.17;29.10;;;4.60;99.90;;;;;;5072944;28;20040;-72
2021/12/12 05:44:27;;;;;;;40.38;29.20;;;4.60;99.90;;;;;;5066572;28;20078;-72
2021/12/12 05:46:59;;;;;;;45.15;30.60;;;4.60;99.90;;;;;;5065832;28;20032;-72
2021/12/12 05:49:25;;;;;;;44.42;29.20;;;4.70;99.90;;;;;;5062273;28;20525;-72
2021/12/12 05:51:50;;;;;;;41.10;28.17;;;4.70;99.90;;;;;;5072513;28;20070;-72
2021/12/12 05:54:17;;;;;;;42.65;29.05;;;4.70;99.90;;;;;;5070213;28;20051;-72
2021/12/12 05:56:43;;;;;;;43.58;28.45;;;4.70;99.90;;;;;;5059198;28;20055;-72
2021/12/12 05:59:11;;;;;;;36.90;27.70;;;4.70;99.90;;;;;;5064264;28;20048;-72
2021/12/12 06:01:38;;;;;;;40.90;27.38;;;4.70;99.90;;;;;;5069956;28;20036;-72
2021/12/12 06:04:04;;;;;;;36.90;27.67;;;4.70;99.90;;;;;;5071982;28;20063;-72
2021/12/12 06:06:35;;;;;;;45.33;29.80;;;4.70;99.90;;;;;;5072310;28;20055;-72
2021/12/12 06:09:05;;;;;;;50.03;28.65;;;4.80;99.90;;;;;;5072683;28;20048;-72
2021/12/12 06:11:33;;;;;;;43.38;30.50;;;4.80;99.90;;;;;;5068168;28;20052;-72
2021/12/12 06:14:01;;;;;;;40.72;28.27;;;4.80;99.90;;;;;;5058300;28;20044;-72
2021/12/12 06:16:31;;;;;;;38.33;26.42;;;4.80;99.90;;;;;;5072519;28;20120;-72
2021/12/12 06:19:15;;;;;;;44.88;27.58;;;4.80;99.90;;;;;;5070698;28;20051;-72
2021/12/12 06:21:42;;;;;;;41.08;28.08;;;4.80;99.90;;;;;;5071847;28;20132;-72
2021/12/12 06:24:09;;;;;;;38.53;25.45;;;4.90;99.90;;;;;;5066843;28;20036;-72
2021/12/12 06:26:36;;;;;;;41.88;27.50;;;4.80;99.90;;;;;;5068582;28;20056;-72
2021/12/12 06:29:05;;;;;;;44.38;26.42;;;4.80;99.90;;;;;;5071021;28;20043;-72
2021/12/12 06:31:34;;;;;;;42.55;27.50;;;4.90;99.90;;;;;;5056743;28;20055;-71
2021/12/12 06:33:59;;;;;;;46.28;28.15;;;4.90;99.90;;;;;;5071930;28;20055;-72
2021/12/12 06:36:26;;;;;;;35.05;24.98;;;4.90;99.90;;;;;;5069650;28;20044;-72
2021/12/12 06:38:54;;;;;;;32.78;25.05;;;4.90;99.90;;;;;;5070882;28;20092;-72
2021/12/12 06:41:21;;;;;;;38.83;26.08;;;4.90;99.90;;;;;;5070723;28;20123;-72
2021/12/12 06:43:48;;;;;;;36.72;25.60;;;4.90;99.90;;;;;;5063139;28;20037;-72
2021/12/12 06:46:15;;;;;;;40.72;25.73;;;5.00;99.90;;;;;;5069526;28;20052;-72
2021/12/12 06:48:42;;;;;;;42.70;26.38;;;5.00;99.90;;;;;;5068579;28;20048;-72
2021/12/12 06:51:09;;;;;;;39.50;24.80;;;5.00;99.90;;;;;;5063016;28;20043;-72
2021/12/12 06:53:39;;;;;;;39.20;24.65;;;5.00;99.90;;;;;;5066170;28;20048;-72
2021/12/12 06:56:08;;;;;;;38.72;26.90;;;5.00;99.90;;;;;;5080999;28;20032;-72
2021/12/12 06:58:34;;;;;;;40.63;26.15;;;5.10;99.90;;;;;;5061859;28;20036;-72
2021/12/12 07:01:08;;;;;;;35.85;23.90;;;5.10;99.90;;;;;;5066952;28;20050;-72
2021/12/12 07:03:34;;;;;;;40.85;24.88;;;5.10;99.90;;;;;;5063725;28;20516;-72
2021/12/12 07:06:00;;;;;;;36.20;24.20;;;5.10;99.90;;;;;;5065106;28;20051;-72
2021/12/12 07:08:27;;;;;;;37.67;24.95;;;5.10;99.90;;;;;;5068514;28;20047;-72
2021/12/12 07:10:52;;;;;;;34.63;23.75;;;5.10;99.90;;;;;;5066298;28;20044;-72
2021/12/12 07:13:19;;;;;;;37.28;25.60;;;5.20;99.90;;;;;;5066771;28;20097;-71
2021/12/12 07:15:53;;;;;;;33.47;23.63;;;5.20;99.90;;;;;;5069114;28;20127;-72
2021/12/12 07:18:22;;;;;;;39.65;23.85;;;5.20;99.90;;;;;;5065455;28;20099;-72
2021/12/12 07:20:51;;;;;;;33.20;23.35;;;5.20;99.90;;;;;;5082548;28;20080;-72
2021/12/12 07:23:17;;;;;;;34.75;23.13;;;5.30;99.90;;;;;;5065743;28;20047;-72
2021/12/12 07:25:44;;;;;;;32.58;22.25;;;5.30;99.90;;;;;;5068266;28;20060;-72
2021/12/12 07:28:11;;;;;;;35.38;23.08;;;5.30;99.90;;;;;;5067507;28;20045;-72
2021/12/12 07:30:37;;;;;;;33.35;22.23;;;5.30;99.90;;;;;;5067569;28;20048;-72
2021/12/12 07:33:05;;;;;;;30.45;20.75;;;5.30;99.90;;;;;;5070065;28;20040;-72
2021/12/12 07:35:37;;;;;;;35.67;24.15;;;5.30;99.90;;;;;;5068647;28;20098;-72
2021/12/12 07:38:06;;;;;;;35.45;22.98;;;5.40;99.90;;;;;;5064862;28;20103;-72
2021/12/12 07:40:33;;;;;;;39.42;22.35;;;5.40;99.90;;;;;;5069444;28;20154;-72
2021/12/12 07:42:59;;;;;;;31.88;20.77;;;5.40;99.90;;;;;;5060092;28;20163;-72
2021/12/12 07:45:25;;;;;;;34.78;22.73;;;5.40;99.90;;;;;;5064308;28;20482;-72
2021/12/12 07:47:54;;;;;;;39.15;22.48;;;5.40;99.90;;;;;;5074150;28;20607;-72
2021/12/12 07:50:23;;;;;;;31.90;22.13;;;5.40;99.90;;;;;;5068795;28;20055;-72
2021/12/12 07:52:50;;;;;;;32.90;22.60;;;5.40;99.90;;;;;;5062365;28;20527;-72
2021/12/12 07:55:16;;;;;;;37.15;24.35;;;5.40;99.90;;;;;;5058031;28;20052;-72
2021/12/12 07:57:42;;;;;;;41.40;24.02;;;5.50;99.90;;;;;;5059336;28;20040;-72
2021/12/12 08:00:13;;;;;;;38.35;23.95;;;5.50;99.90;;;;;;5070452;28;20078;-72
2021/12/12 08:02:41;;;;;;;41.25;24.20;;;5.50;99.90;;;;;;5062650;28;20048;-72
2021/12/12 08:05:09;;;;;;;43.80;24.42;;;5.50;99.90;;;;;;5056701;28;20480;-72
2021/12/12 08:07:36;;;;;;;34.63;23.67;;;5.50;99.90;;;;;;5066461;28;20059;-72
2021/12/12 08:10:07;;;;;;;34.63;23.65;;;5.60;99.90;;;;;;5067307;28;20048;-72
2021/12/12 08:12:33;;;;;;;39.65;24.42;;;5.60;99.90;;;;;;5069219;28;20051;-72
2021/12/12 08:15:05;;;;;;;44.33;25.95;;;5.60;99.90;;;;;;5067330;28;20049;-72
2021/12/12 08:17:31;;;;;;;38.03;24.70;;;5.70;99.90;;;;;;5082726;28;20055;-72
2021/12/12 08:19:58;;;;;;;36.42;24.10;;;5.70;99.90;;;;;;5069071;28;20555;-72
2021/12/12 08:22:25;;;;;;;43.97;24.45;;;5.70;99.90;;;;;;5062810;28;20093;-72
2021/12/12 08:24:51;;;;;;;38.58;24.67;;;5.70;99.90;;;;;;5066521;28;20109;-72
2021/12/12 08:27:16;;;;;;;36.67;23.92;;;5.70;99.90;;;;;;5064524;28;20138;-72
2021/12/12 08:29:43;;;;;;;40.22;24.95;;;5.80;99.90;;;;;;5068240;28;20093;-72
2021/12/12 08:32:12;;;;;;;39.97;23.90;;;5.80;99.90;;;;;;5074757;28;20040;-72
2021/12/12 08:34:38;;;;;;;49.42;26.23;;;5.80;99.90;;;;;;5072734;28;20040;-72
2021/12/12 08:37:05;;;;;;;34.70;21.70;;;5.80;99.90;;;;;;5074077;28;20040;-72
2021/12/12 08:39:31;;;;;;;36.33;23.27;;;5.80;99.90;;;;;;5070795;28;20049;-72
2021/12/12 08:41:59;;;;;;;39.10;23.08;;;5.80;99.90;;;;;;5067128;28;20048;-72
2021/12/12 08:44:28;;;;;;;38.83;24.02;;;5.80;99.90;;;;;;5075638;28;20489;-72
2021/12/12 08:46:56;;;;;;;32.63;21.13;;;5.80;99.90;;;;;;5081972;28;20044;-72
2021/12/12 08:49:24;;;;;;;;;;;5.90;99.90;;;;;;5070691;28;20810;-72
2021/12/12 08:51:55;;;;;;;34.47;23.37;;;5.90;99.90;;;;;;5062363;28;19920;-72
2021/12/12 08:54:30;;;;;;;33.13;22.00;;;5.90;99.90;;;;;;5068759;28;20286;-72
2021/12/12 08:57:03;;;;;;;39.25;23.23;;;5.90;99.90;;;;;;5069702;28;20047;-72
2021/12/12 08:59:34;;;;;;;37.05;23.92;;;5.90;99.90;;;;;;5073705;28;20569;-72
2021/12/12 09:02:05;;;;;;;41.85;25.58;;;5.90;99.90;;;;;;5065468;28;20039;-72
2021/12/12 09:04:34;;;;;;;43.75;25.42;;;6.00;99.90;;;;;;5073897;28;20102;-72
2021/12/12 09:07:16;;;;;;;45.72;26.13;;;6.00;99.90;;;;;;5071778;28;20520;-72
2021/12/12 09:10:01;;;;;;;41.35;25.63;;;6.00;99.90;;;;;;5070541;28;20414;-72
2021/12/12 09:12:34;;;;;;;45.05;25.67;;;6.10;99.90;;;;;;5069905;28;20052;-73
2021/12/12 09:15:18;;;;;;;40.22;25.27;;;6.00;99.90;;;;;;5071630;28;20493;-73
2021/12/12 09:17:55;;;;;;;44.10;26.95;;;6.10;99.90;;;;;;5068534;28;20048;-73
2021/12/12 09:20:49;;;;;;;39.20;25.60;;;6.10;99.90;;;;;;5066134;28;20044;-72
2021/12/12 09:23:24;;;;;;;46.47;26.23;;;6.10;99.90;;;;;;5065318;28;20616;-72
2021/12/12 09:25:58;;;;;;;42.13;26.67;;;6.20;99.90;;;;;;5070653;28;20053;-73
2021/12/12 09:28:39;;;;;;;41.47;25.30;;;6.20;99.90;;;;;;5069878;28;20046;-72
2021/12/12 09:31:17;;;;;;;48.03;27.17;;;6.20;99.90;;;;;;5073854;28;20127;-72
2021/12/12 09:34:21;;;;;;;47.80;27.77;;;6.20;99.90;;;;;;5085898;28;20093;-72
2021/12/12 09:36:57;;;;;;;50.05;28.38;;;6.20;99.90;;;;;;5026062;28;20051;-73
2021/12/12 09:39:27;;;;;;;49.83;28.23;;;6.20;99.90;;;;;;5065529;28;20494;-72
2021/12/12 09:42:20;;;;;;;44.65;26.88;;;6.30;99.90;;;;;;5069466;28;20043;-72
2021/12/12 09:45:16;;;;;;;49.20;26.58;;;6.30;99.90;;;;;;5063515;28;20459;-72
2021/12/12 09:51:16;;;;;;;52.60;28.55;;;6.40;99.90;;;;;;5067178;28;20045;-72
2021/12/12 09:54:06;;;;;;;58.05;29.25;;;6.40;99.90;;;;;;5045599;28;20044;-72
2021/12/12 09:56:56;;;;;;;51.03;28.85;;;6.50;99.90;;;;;;5071056;28;20051;-72
2021/12/12 09:59:46;;;;;;;53.78;29.55;;;6.50;99.90;;;;;;5069906;28;20052;-72
2021/12/12 10:02:35;;;;;;;49.78;29.13;;;6.60;99.90;;;;;;5064633;28;20042;-72
2021/12/12 10:05:06;;;;;;;66.28;33.20;;;6.60;99.90;;;;;;5071400;28;21228;-72
2021/12/12 10:08:04;;;;;;;64.65;33.67;;;6.70;99.90;;;;;;5066641;28;20087;-72
2021/12/12 10:10:35;;;;;;;78.78;34.85;;;6.70;99.90;;;;;;5019725;28;20088;-72
2021/12/12 10:13:30;;;;;;;71.03;34.75;;;6.70;99.90;;;;;;5064210;28;20443;-72
2021/12/12 10:16:01;;;;;;;72.55;35.38;;;6.80;99.90;;;;;;5061259;28;20052;-72
2021/12/12 10:18:29;;;;;;;59.38;33.60;;;6.80;99.90;;;;;;5066930;28;20087;-72
2021/12/12 10:21:01;;;;;;;;;;;6.90;99.90;;;;;;5063212;28;20054;-72
2021/12/12 10:24:20;;;;;;;78.80;37.22;;;6.90;99.90;;;;;;5065108;28;19981;-72
2021/12/12 10:26:59;;;;;;;75.72;36.13;;;7.00;99.90;;;;;;5003773;28;20054;-72
2021/12/12 10:29:30;;;;;;;72.32;35.10;;;7.00;99.90;;;;;;5028427;28;20088;-72
2021/12/12 10:32:27;;;;;;;75.85;35.80;;;7.00;99.90;;;;;;5044286;28;20513;-72
2021/12/12 10:35:26;;;;;;;63.47;33.17;;;7.10;99.90;;;;;;5062149;28;20049;-72
2021/12/12 10:37:56;;;;;;;63.70;34.08;;;7.10;99.90;;;;;;5039281;28;20143;-72
2021/12/12 10:40:29;;;;;;;65.43;33.40;;;7.10;99.90;;;;;;5071040;28;20128;-72
2021/12/12 10:43:01;;;;;;;56.72;32.25;;;7.10;99.90;;;;;;5068559;28;20417;-72
2021/12/12 10:45:34;;;;;;;69.75;32.45;;;7.20;99.90;;;;;;5052384;28;20040;-72
2021/12/12 10:48:08;;;;;;;59.13;31.90;;;7.20;99.90;;;;;;5065977;28;20040;-72
2021/12/12 10:51:13;;;;;;;53.70;30.77;;;7.30;99.90;;;;;;5065406;28;20052;-72
2021/12/12 10:53:43;;;;;;;50.28;29.20;;;7.30;99.90;;;;;;5065191;28;20044;-72
2021/12/12 10:56:37;;;;;;;52.72;29.95;;;7.30;99.90;;;;;;5068710;28;20085;-72
2021/12/12 10:59:14;;;;;;;52.42;28.77;;;7.50;99.90;;;;;;5067084;28;20501;-72
2021/12/12 11:01:44;;;;;;;70.70;33.73;;;7.50;99.90;;;;;;5067981;28;20071;-72
2021/12/12 11:04:21;;;;;;;60.38;29.70;;;7.50;99.90;;;;;;5062427;28;20049;-72
2021/12/12 11:06:55;;;;;;;51.97;28.95;;;7.50;99.90;;;;;;5063455;28;20075;-72
2021/12/12 11:09:29;;;;;;;60.80;29.92;;;7.50;99.90;;;;;;5065755;28;20075;-72
2021/12/12 11:12:13;;;;;;;61.47;29.88;;;7.60;99.90;;;;;;5071229;28;20542;-72
2021/12/12 11:15:01;;;;;;;55.10;29.77;;;7.60;99.90;;;;;;5061771;28;20053;-73
2021/12/12 11:17:31;;;;;;;56.25;29.98;;;7.60;99.90;;;;;;5063312;28;20087;-72
2021/12/12 11:20:06;;;;;;;55.00;28.35;;;7.60;99.90;;;;;;5043141;28;20036;-72
2021/12/12 11:22:42;;;;;;;54.50;28.08;;;7.60;99.90;;;;;;5069692;28;20093;-73
2021/12/12 11:25:17;;;;;;;56.47;27.98;;;7.70;99.90;;;;;;5065785;28;20062;-72
2021/12/12 11:27:49;;;;;;;46.10;25.80;;;7.70;99.90;;;;;;5062051;28;20051;-72
2021/12/12 11:30:25;;;;;;;42.75;25.10;;;7.70;99.90;;;;;;5056878;28;20055;-72
2021/12/12 11:32:53;;;;;;;43.15;27.13;;;7.80;99.90;;;;;;5063325;28;20059;-72
2021/12/12 11:35:22;;;;;;;44.58;26.05;;;7.80;99.90;;;;;;5060286;28;20052;-72
2021/12/12 11:38:05;;;;;;;41.75;25.35;;;7.90;99.90;;;;;;5057536;28;20047;-72
2021/12/12 11:40:34;;;;;;;47.20;26.48;;;7.90;99.90;;;;;;5069260;28;20048;-72
2021/12/12 11:43:33;;;;;;;47.00;24.23;;;8.00;99.90;;;;;;5067119;28;20416;-72
2021/12/12 11:46:29;;;;;;;46.60;26.83;;;8.00;99.90;;;;;;5064139;28;20063;-72
2021/12/12 11:49:20;;;;;;;42.47;24.63;;;8.10;99.90;;;;;;5073002;28;20514;-72
2021/12/12 11:52:01;;;;;;;48.17;26.25;;;8.10;99.90;;;;;;5065855;28;20041;-72
2021/12/12 11:54:54;;;;;;;46.53;26.40;;;8.10;99.90;;;;;;5070439;28;20405;-73
2021/12/12 11:57:25;;;;;;;53.33;25.60;;;8.20;99.90;;;;;;5065857;28;20055;-72
2021/12/12 12:00:01;;;;;;;40.38;24.70;;;8.20;99.90;;;;;;5067351;28;20066;-72
2021/12/12 12:02:55;;;;;;;45.28;26.20;;;8.20;99.90;;;;;;5069548;28;20044;-73
2021/12/12 12:05:36;;;;;;;42.55;24.50;;;8.30;99.90;;;;;;5055753;28;20060;-72
2021/12/12 12:08:30;;;;;;;46.05;26.27;;;8.20;99.90;;;;;;5066912;28;20468;-72
2021/12/12 12:11:11;;;;;;;43.78;25.15;;;8.30;99.90;;;;;;5069229;28;20108;-72
2021/12/12 12:14:07;;;;;;;46.22;24.45;;;8.30;99.90;;;;;;5061764;28;20045;-73
2021/12/12 12:16:58;;;;;;;49.15;26.27;;;8.40;99.90;;;;;;5063984;28;20508;-72
2021/12/12 12:20:10;;;;;;;43.45;24.65;;;8.30;99.90;;;;;;5067365;28;20047;-72
2021/12/12 12:22:58;;;;;;;50.95;26.13;;;8.40;99.90;;;;;;5068297;28;20059;-72
2021/12/12 12:28:50;;;;;;;47.92;26.63;;;8.40;99.90;;;;;;5054683;28;20145;-72
2021/12/12 12:31:36;;;;;;;51.72;25.48;;;8.40;99.90;;;;;;5055886;28;20490;-72
2021/12/12 12:34:29;;;;;;;47.42;27.92;;;8.40;99.90;;;;;;5066783;28;20086;-72
2021/12/12 12:37:13;;;;;;;50.70;26.02;;;8.40;99.90;;;;;;5068140;28;20088;-72
2021/12/12 12:40:01;;;;;;;49.28;25.48;;;8.50;99.90;;;;;;5062246;28;20044;-72
2021/12/12 12:43:04;;;;;;;48.90;26.83;;;8.50;99.90;;;;;;5085056;28;20063;-72
2021/12/12 12:45:55;;;;;;;54.95;25.67;;;8.50;99.90;;;;;;5056101;28;20040;-72
2021/12/12 12:48:45;;;;;;;47.35;24.77;;;8.50;99.90;;;;;;5058491;28;20145;-72
2021/12/12 12:51:45;;;;;;;62.45;29.98;;;8.50;99.90;;;;;;5069414;28;20052;-72
2021/12/12 12:54:35;;;;;;;58.83;28.17;;;8.50;99.90;;;;;;5067707;28;20123;-72
2021/12/12 12:57:22;;;;;;;61.22;29.70;;;8.60;99.90;;;;;;5067197;28;20044;-72
2021/12/12 13:00:07;;;;;;;60.50;30.05;;;8.60;99.90;;;;;;5060518;28;20090;-72
2021/12/12 13:02:36;;;;;;;56.97;28.55;;;8.60;99.90;;;;;;5059636;28;20045;-72
2021/12/12 13:05:08;;;;;;;58.83;26.95;;;8.60;99.90;;;;;;5067213;28;20095;-72
2021/12/12 13:07:39;;;;;;;60.30;31.83;;;8.70;99.90;;;;;;5069179;28;20048;-72
2021/12/12 13:10:17;;;;;;;57.42;29.13;;;8.70;99.90;;;;;;5058431;28;20088;-72
2021/12/12 13:13:06;;;;;;;50.75;27.25;;;8.70;99.90;;;;;;5059597;28;20048;-72
2021/12/12 13:15:47;;;;;;;61.17;28.60;;;8.80;99.90;;;;;;5063667;28;20067;-72
2021/12/12 13:18:38;;;;;;;72.70;29.95;;;8.80;99.90;;;;;;5068416;28;20104;-71
2021/12/12 13:21:40;;;;;;;48.53;26.00;;;8.80;99.90;;;;;;5064651;28;20881;-72
2021/12/12 13:24:37;;;;;;;54.75;26.80;;;8.80;99.90;;;;;;5057368;28;20113;-72
2021/12/12 13:27:28;;;;;;;56.63;29.33;;;8.80;99.90;;;;;;5062144;28;20040;-72
2021/12/12 13:30:26;;;;;;;56.58;28.77;;;8.90;99.90;;;;;;5065812;28;20049;-72
2021/12/12 13:33:04;;;;;;;54.53;27.93;;;8.90;99.90;;;;;;5046886;28;20048;-72
2021/12/12 13:36:00;;;;;;;55.50;27.50;;;8.90;99.90;;;;;;5063209;28;20044;-72